.: Résultats course des crêtes 2015 :.

Cliquez sur une course afin d'obtenir l'affichage du classement.
En bas du tableau vous pouvez télécharger les résultats au format excel.

  

    

 Classement course 14 kms femme catégorie SEH
# Nom Prenom temps dossard Club Categorie
1 NESPRIAS David 01:05:10.21 3464 SARA KORRIKA SEH
2 RIDOUARD Mathieu 01:05:39.13 4083 ELAN USSEL SEH
3 MATHIEU Julien 01:06:39.56 3860 BORDEAUX ATHLÉ SEH
4 VIGNERON Fabien 01:07:14.62 4272 AJ MONTMOREAU ATHLETISME SEH
5 DUMOTIER Benjamin 01:08:14.43 4066   SEH
6 OLIVES Nicolas 01:10:07.93 4533   SEH
7 DUMOTIER Kévin 01:10:31.48 4041   SEH
8 BOISRAMÉ Hervé 01:10:54.85 4543 PBA TRAIL SEH
9 GROUILLARD STEFENEL Antoine 01:11:26.22 4429 LE COURS DES HALLES SEH
10 VALOT Maxime 01:11:54.19 3955   SEH
11 AOUN Pierre 01:12:24.74 3895   SEH
12 AZRIEL Denis 01:13:29.73 4029   SEH
13 FEYS Frederic 01:14:04.64 4318   SEH
14 AREGAY Marc 01:14:33.07 4319 CAPRAID 64 SEH
15 LABAT Benjamin 01:14:43.36 4346 AS GIEN NATATION SECTION TRIATHLON SEH
16 AUBIES-TROUILH Cédric 01:15:44.27 4590   SEH
17 CABALLERO Manu-tara 01:16:15.02 3616 POMPIERS BORDEAUX TRIATHLON SEH
18 MAILLEN Guillaume 01:16:18.40 4661 LIGNE D ARRÊT SEH
19 MARTY Yvon 01:16:37.21 3744   SEH
20 THIRIAU Jimmy 01:17:09.58 4008 TXINPARTACK SEH
21 CERESE-LEVERT Charlie 01:17:33.14 4438   SEH
22 SAUNE Nicolas 01:17:59.70 3814   SEH
23 SALLES Thibaut 01:18:06.53 3543   SEH
24 GLAVINOFF Yoann 01:18:51.31 4364   SEH
25 FERNANDEZ Olivier 01:18:56.29 4640   SEH
26 NOBLIA Yannick 01:19:30.38 4448 NAPURRAK SEH
27 LOPEZ Cédric 01:20:06.08 4516   SEH
28 FORTASSIN Thomas 01:20:15.60 4003   SEH
29 BONNEAU Sebastien 01:20:46.01 3904 TEAM 16 SEH
30 BENALI Djamel 01:20:49.50 4668 VIGNAUT ENTREPRISE SEH
31 RAMEAUX Fabien 01:21:08.52 4415   SEH
32 BOYRIE Cedric 01:21:14.98 4057   SEH
33 TUFFOU Romain 01:21:23.31 3831   SEH
34 OLHATS Bertrand 01:21:24.40 4026   SEH
35 BOURGEOIS Frederic 01:21:42.06 3927   SEH
36 LEPAGE Thomas 01:22:04.01 3938   SEH
37 ARNATHAU Pascal 01:22:06.98 4126 AVENIR AIRE SUR ADOUR SEH
38 THIRIAU Gabriel 01:22:11.75 4000 TXINPARTAK SEH
39 MEILLIER Laurent 01:22:53.91 4336   SEH
40 PLANTE Frédéric 01:22:56.24 4344   SEH
41 SEGURAN Fabien 01:23:35.67 4385   SEH
42 CASTILLON Clément 01:23:41.04 4363   SEH
43 GAUDAIS Anthony 01:23:59.87 4183 PBA SEH
44 LACASTA Pierre 01:24:23.40 4515   SEH
45 GESLIN Jimmy 01:24:25.76 4574   SEH
46 PHILIPPE Benjamin 01:24:36.52 4329   SEH
47 LOUIS Vincent 01:25:04.40 3727 AS VEOLIA EAU SEH
48 ABEILHE Benoit 01:25:06.96 3881 TEAM MAX SEH
49 ASTIER Damien 01:25:12.97 3966   SEH
50 MAZZUCATO Damien 01:25:19.36 4631   SEH
51 DABADIE Guillaume 01:25:29.97 3579   SEH
52 FALCINELLI Pierre 01:25:48.55 3719   SEH
53 CORDONNIER Sebastien 01:25:53.77 3863   SEH
54 BEDIN Bertrand 01:25:54.25 3905 CD UFOLEP 47 SEH
55 CASSOU Cedric 01:26:24.30 4426   SEH
56 PIERRE Jean-noel 01:26:25.46 4231   SEH
57 CONSTANTIN Benoit 01:26:26.27 4525   SEH
58 BEES Vincent 01:26:49.78 4150   SEH
59 HARGUINDEGUY Antton 01:26:50.33 4464   SEH
60 SENIE Nicolas 01:26:59.31 4455   SEH
61 JEGOU Nicolas 01:27:11.79 4407 ASSO EDOIA SEH
62 DELMONT Romain 01:27:46.50 4186   SEH
63 SERVAT Thibaud 01:27:49.92 4591   SEH
64 CHARBOUILLOT Evan 01:27:50.85 4592   SEH
65 BARTOS Jimmy 01:27:51.84 4626 BUGEAT-TREIGNAC ATHLÉ SEH
66 ALFARO Nicolas 01:28:15.86 4401 COB - CLUB OLYMPIQUE BAYONNAIS SEH
67 ADAMI Greg 01:28:29.02 3900   SEH
68 GUILLOTTE Romain 01:28:34.70 3699   SEH
69 BOYER Luc 01:28:40.83 3883   SEH
70 SIEURAC Pierre 01:28:49.18 3662   SEH
71 BIELLE Damien 01:28:49.18 3662   SEH
72 SEIGNEURIC Thomas 01:29:00.29 3878   SEH
73 BISCAY Marc 01:29:02.56 4577 -- SEH
74 LAZZERINI Rémy 01:29:30.82 4348 ASEAT CREDIT MUTUEL SEH
75 GARRA Aurelien 01:29:34.23 4045   SEH
76 CALONGE Christophe 01:29:41.63 4207   SEH
77 PERALEDA Jerome 01:29:52.95 4209 TEAMMAX SEH
78 BONHOMME Didier 01:29:56.08 3429   SEH
79 LACAZE Mathieu 01:30:09.24 3487 TEAM MAX SEH
80 IMAQUE Yoann 01:30:13.75 3491   SEH
81 VERBERT Antoine 01:30:14.69 3928   SEH
82 BESSE Alexandre 01:30:16.73 3819   SEH
83 SAUVAGE GUILLEMIN Benoit 01:30:22.69 3656   SEH
84 HAUDECOEUR Yoann 01:30:23.11 3586 LES AIGLES DE PAU SEH
85 BRICAUD Clément 01:30:24.85 4593   SEH
86 CASAUX Rémi 01:30:25.40 3652   SEH
87 BOUYSSOU Sylvain 01:30:29.88 4609   SEH
88 ORGERON Damien 01:30:50.74 3815   SEH
89 GUESDON Matthieu 01:30:54.66 4553   SEH
90 PHILIPPE Romain 01:31:22.51 4356   SEH
91 AROTCARENA Julien 01:31:25.53 4425   SEH
92 LEROY Sylvain 01:31:51.94 4172   SEH
93 GRUMETZ Aurélien 01:32:10.28 3751   SEH
94 CAULET Alexandre 01:32:13.31 4367 LE TAILLAN BASKET SEH
95 MEDAL Ronan 01:32:27.13 3932   SEH
96 BAZIN Damien 01:32:35.00 3915   SEH
97 LON MON POY Jean remi 01:32:57.63 4498   SEH
98 ROBOAM Mathieu 01:33:23.61 4638   SEH
99 TARNOWSKI Frédéric 01:33:26.97 4517   SEH
100 DAVIAUD Thomas 01:33:28.26 3490   SEH
101 DING Xavier 01:33:41.67 4342 ABSOLU RAID TOULOUSE SEH
102 VIDAL David 01:34:11.75 3870 CA BALMA SEH
103 LACU Sylvain 01:34:13.73 4536   SEH
104 COLINET Emeric 01:34:34.84 4107   SEH
105 BARONNET Vivien 01:34:55.41 3923   SEH
106 BARBIER Rémy 01:35:15.38 4347 LA FOULÉE BEAUZELLOISE SEH
107 FROMENT Lucas 01:35:33.37 3942   SEH
108 GUILHEMSAN Nicolas 01:35:35.43 3632   SEH
109 MULET Guillaume 01:35:42.63 4416   SEH
110 ELIZALDE Gregory 01:36:37.50 4496   SEH
111 FOLLIN-ARBELET Bruno 01:36:38.23 3581   SEH
112 GARRIGUES Jean-francois 01:36:42.31 3879   SEH
113 TRAUMAT Vincent 01:37:13.29 4116   SEH
114 CASTANDET Loic 01:37:31.03 4508   SEH
115 CADARS Benjamin 01:37:32.31 4388   SEH
116 LE FUR Ronan 01:37:40.41 3702   SEH
117 SOLDADIÉ Axel 01:37:43.99 4161   SEH
118 PICOULET Remi 01:37:46.94 4058   SEH
119 ROY Fabien 01:37:51.23 3571 BÉRUGES SPORT NATURE SEH
120 THALIE Aurelien 01:37:57.12 3973   SEH
121 CHAPERON Guillaume 01:38:12.28 4171   SEH
122 MARECHAL Nicolas 01:38:28.48 4611   SEH
123 BRUNET Francois 01:38:52.21 3707   SEH
124 DELHORBE Camille 01:39:03.73 3433   SEH
125 LOPEZ Cédric 01:39:06.12 4564   SEH
126 CHABRIER Sébastien 01:39:07.36 3715   SEH
127 BODIN Thomas 01:39:08.29 3768   SEH
128 SOULE Paul 01:39:15.28 4102   SEH
129 LECOQ Kevin 01:39:22.25 4544   SEH
130 BARATON Florent 01:39:26.25 3825   SEH
131 TILLET Julien 01:39:39.22 4104   SEH
132 CAULET Charly 01:39:48.41 4538   SEH
133 POCQUET Mathieu 01:39:52.07 4487   SEH
134 VILISQUES Florent 01:39:52.08 3717   SEH
135 AZEMAT Nicolas 01:39:53.97 3929   SEH
136 PIQUEMAL Florent 01:39:55.26 3798   SEH
137 SEZESTRE Romain 01:40:36.41 3995   SEH
138 POURQUIER Nicolas 01:40:47.68 4153 ASEAT CREDIT MUTUEL SEH
139 DUTHU Jérôme 01:40:49.15 3574   SEH
140 GEFFRELOT Sébastien 01:40:49.24 3855   SEH
141 LE GRELLE Pierre 01:41:02.61 4405   SEH
142 DUFOURGT Damien 01:41:04.65 3559   SEH
143 BONNEAU Florian 01:41:20.73 4258   SEH
144 SAUVAL Jeoffrey 01:41:21.08 4001   SEH
145 ROUSSEAU Anthony 01:41:27.53 4434   SEH
146 SÉMONDÈS Renaud 01:41:56.71 4679   SEH
147 DUPONT Pierre alexandre 01:41:59.67 4006   SEH
148 PAILLARD Raphael 01:42:07.53 4584   SEH
149 CALAS David 01:42:07.74 4566   SEH
150 HIS Mathieu 01:42:13.40 4042   SEH
151 BERTON David 01:42:16.20 3610   SEH
152 DOSPITAL Julien 01:42:16.77 4656   SEH
153 ALONSO Francois 01:42:21.87 4524   SEH
154 DUPANLOUP Guillaume 01:42:34.98 4414   SEH
155 IDRAC Pierre 01:43:07.04 4619 LE COURS DES HALLES SEH
156 OLIVRY Gaëtan 01:43:15.53 4295   SEH
157 FOSTEIN Baptiste 01:43:19.45 4034   SEH
158 LIENARD Benjamin 01:43:23.95 3876   SEH
159 WAXIN Grégory 01:43:28.91 3952   SEH
160 DUSART Antoine 01:43:35.10 3733   SEH
161 BESSE Ludovic 01:43:45.23 3889   SEH
162 OCCELLI Nicolas 01:43:49.56 3558   SEH
163 CIVEL Tony 01:43:52.97 3576   SEH
164 GUITON Axel 01:43:53.52 4137   SEH
165 MARTIN Sebastien 01:44:20.60 3935   SEH
166 ESPONDA David 01:44:29.93 4639   SEH
167 RAGUENAULT Nicolas 01:44:36.41 4167 ASPTT NIORT SEH
168 NEUHAUSER Mathis 01:45:04.19 4261   SEH
169 RENAUD Alexandre 01:45:06.10 3534   SEH
170 BOYER Pierre 01:45:12.70 4637   SEH
171 LAUGINIE Jean-loup 01:45:33.69 4399   SEH
172 TARADE Cyril 01:45:41.52 3557   SEH
173 LANOT Laurent 01:45:58.48 4047   SEH
174 BRIEUX Vincent 01:46:02.59 3460   SEH
175 BLANCHARD Sébastien 01:46:04.74 4436   SEH
176 SCHWEIGHOFFER Pierre 01:46:20.59 3420 VGA SAINT-MAUR SEH
177 SADOUX Guillaume 01:46:47.03 4033   SEH
178 DUBOIS Julien-brice 01:46:49.92 4381   SEH
179 BARRIEU Nicolas 01:47:04.20 4193   SEH
180 SURVILA Emmanuel 01:47:17.85 3637   SEH
181 MARLE Louis 01:47:56.37 3911 TRAIL RUNNER FOUNDATION SEH
182 REGNIER Christophe 01:48:01.97 3888   SEH
183 BUENO GARCIA Sebastien 01:48:06.03 4602   SEH
184 POMMIES Guillaume 01:48:08.88 3936   SEH
185 OPTALY Gérald 01:48:20.14 4021   SEH
186 SALIÈRES Patrick 01:48:20.21 4215   SEH
187 PASTOURELY Olivier 01:48:20.93 3984   SEH
188 CAPERA Elie 01:48:27.11 4629 RACLETTE ADVENTURE SEH
189 PIET Loic 01:48:38.04 3947   SEH
190 CUGNEZ Fabien 01:48:52.24 4395   SEH
191 LAVERGNE Antoine 01:48:52.95 3802   SEH
192 BALLOT Sebastien 01:49:25.99 4687   SEH
193 GUÉRIN Florian 01:49:29.12 4603   SEH
194 MOINET Guillaume 01:49:34.06 3489 LES KILLTEUSES SEH
195 DUPLEIX Brice 01:49:36.94 4097   SEH
196 PAGES Gilles 01:50:01.96 4111   SEH
197 LABIT Guillaume 01:51:07.58 4221 UTOPYA PYRÉNÉES SEH
198 METZGER Emmanuel 01:51:08.19 4230   SEH
199 CAMESCASSE Jean 01:51:08.83 4537 RACLETTE ADVENTURE SEH
200 COUTELEAU David 01:51:13.75 4098   SEH
201 DHUGUES Sebastien 01:51:20.99 4024   SEH
202 BARNABE Bruno 01:52:29.38 3957   SEH
203 BOURDARIE Herve 01:52:47.30 4587   SEH
204 LERAY Alexandre 01:52:56.70 4456   SEH
205 BROQUERE Emmanuel 01:53:05.02 3912 BOULIAC SPORT PLAISIR SEH
206 MAURY Jeremy 01:53:09.82 3761   SEH
207 LOPEZ Romain 01:53:16.46 4087   SEH
208 SABY Jean patrice 01:53:17.73 3817   SEH
209 PETITJEAN Julien 01:53:37.48 3839   SEH
210 LACAZE Johan 01:53:53.01 3629   SEH
211 BORTOLUZZI Romain 01:53:53.99 3672   SEH
212 ASSONITIS Mickael 01:53:56.66 4478   SEH
213 CAMELIN Jeremy 01:53:58.27 3934   SEH
214 VILISQUES Jérôme 01:54:05.21 3689   SEH
215 BONNIN Cyril 01:54:07.50 4285   SEH
216 UZUREAU Lionel 01:54:35.48 3803   SEH
217 FEYFANT Benoit 01:54:40.32 3626   SEH
218 COURNEIL Nicolas 01:54:54.04 4519 RAYNONNANTS SEH
219 DRONNIER Matthieu 01:54:59.36 4526 ASEAT CREDIT MUTUEL SEH
220 VAUDO Nicolas 01:55:50.95 3734   SEH
221 BOURREAU Nicolas 01:55:58.00 4305   SEH
222 PETEYTAS Kévin 01:56:43.19 3682   SEH
223 FIGUS Frédéric 01:57:25.20 4195   SEH
224 DANIEL Arnaud 01:57:36.91 4244   SEH
225 SCABORO Rémi 01:58:11.86 3720   SEH
226 PANON Michael 01:58:19.45 4050   SEH
227 KUCUKOGLU Yildiray 01:58:19.53 4089   SEH
228 PINEAU Romuald 01:58:19.97 4142   SEH
229 PINEAU Robin 01:58:20.91 3587   SEH
230 DELAVAUD Anthony 01:58:26.81 3818   SEH
231 DARMON Jean 01:59:08.30 4623   SEH
232 FOURNADET Vincent 01:59:35.02 4125   SEH
233 PETIT Julien 01:59:38.17 3747   SEH
234 GOUBAN Mickael 02:00:16.20 3520   SEH
235 VAN LIEFDE Mathieu 02:00:29.47 3790   SEH
236 VAN LIEFDE Florent 02:00:32.53 4469 N/A SEH
237 MADELPUECH Julien 02:00:36.09 4119   SEH
238 LISSARRAGUE Jerome 02:00:36.93 3746   SEH
239 GARCIA Olivier 02:00:59.51 4308   SEH
240 BELLOT Fabien 02:02:50.13 4459   SEH
241 BERGEOT Nicolas 02:02:50.30 4453   SEH
242 GUENNEC Yoann 02:03:14.52 4397   SEH
243 TESSONNEAU Fabien 02:03:24.65 3944   SEH
244 VILISQUES Nicolas 02:03:28.80 3688   SEH
245 JORGE Philippe 02:04:03.92 4607   SEH
246 PETER Colas 02:05:25.10 4444   SEH
247 VIALARD Christophe 02:07:36.86 4686   SEH
248 MARCELLIN Benoit 02:08:10.69 3537   SEH
249 BAZIN Louis 02:08:11.17 3820   SEH
250 TIEYRE Grégory 02:08:52.83 4505   SEH
251 HARRAULT Julien 02:09:05.72 4620   SEH
252 LAPEYRE Emmanuel 02:10:50.04 3766   SEH
253 VIGNERES Charles 02:10:50.14 3641   SEH
254 GRIHON Armand 02:10:50.36 3617   SEH
255 DAUBA Julien 02:11:02.14 3959   SEH
256 SÉGOVIA Patrick 02:11:09.07 3954   SEH
257 FIANCETTE Jean-françois 02:11:12.49 4018   SEH
258 DUBOS Laurent 02:12:32.90 4023   SEH
259 NAUD Etienne 02:14:31.40 3527   SEH
260 SALABERT Benjamin 02:15:28.67 4559   SEH
261 DUPRAT Nicolas 02:18:52.34 4654   SEH
262 PITON Thomas 02:18:52.72 4655   SEH
263 AUBIN Claude 02:21:36.73 4502   SEH
264 POUPART Pierre 02:22:42.91 4120   SEH
265 FAVRIS Aurélien 02:28:06.69 4513   SEH
266 DESTRAC Claude 02:29:27.69 3673   SEH
267 BARON Jean baptiste 02:31:18.38 3909   SEH
268 FENNEBRESQUE Guillaume 02:31:53.57 3510   SEH
 Record (1..268)  

.: Powered by Guyzoline :.